createdAt,value
2022-12-03T00:00:58.776Z,46.58
2022-12-03T00:03:30.729Z,46.68
2022-12-03T00:06:01.429Z,46.73
2022-12-03T00:08:32.165Z,46.83
2022-12-03T00:11:02.963Z,46.83
2022-12-03T00:13:33.723Z,46.85
2022-12-03T00:16:04.522Z,46.88
2022-12-03T00:18:35.283Z,46.75
2022-12-03T00:21:06.768Z,46.79
2022-12-03T00:23:42.095Z,46.77
2022-12-03T00:26:13.116Z,46.77
2022-12-03T00:28:43.799Z,46.70
2022-12-03T00:31:14.523Z,46.74
2022-12-03T00:33:45.306Z,46.78
2022-12-03T00:36:16.048Z,46.99
2022-12-03T00:38:46.752Z,46.90
2022-12-03T00:41:17.488Z,46.90
2022-12-03T00:43:48.471Z,46.92
2022-12-03T00:46:21.589Z,47.01
2022-12-03T00:48:52.772Z,47.08
2022-12-03T00:51:23.509Z,47.01
2022-12-03T00:53:54.354Z,47.05
2022-12-03T00:56:25.029Z,47.08
2022-12-03T00:58:55.826Z,47.01
2022-12-03T01:01:26.890Z,47.23
2022-12-03T01:03:57.753Z,47.23
2022-12-03T01:06:28.550Z,47.16
2022-12-03T01:08:59.287Z,47.24
2022-12-03T01:11:39.337Z,47.32
2022-12-03T01:14:11.446Z,47.34
2022-12-03T01:16:43.062Z,47.41
2022-12-03T01:19:16.184Z,47.33
2022-12-03T01:21:48.532Z,47.42
2022-12-03T01:24:20.521Z,47.60
2022-12-03T01:26:51.235Z,47.58
2022-12-03T01:29:21.843Z,47.66
2022-12-03T01:32:10.210Z,47.59
2022-12-03T01:34:40.946Z,47.55
2022-12-03T01:37:11.788Z,47.71
2022-12-03T01:39:42.610Z,47.49
2022-12-03T01:42:17.459Z,47.75
2022-12-03T01:44:49.120Z,47.85
2022-12-03T01:47:22.105Z,47.74
2022-12-03T01:49:56.517Z,47.65
2022-12-03T01:52:29.528Z,47.68
2022-12-03T01:55:03.127Z,47.80
2022-12-03T01:57:41.086Z,48.01
2022-12-03T02:00:16.594Z,47.96
2022-12-03T02:02:48.228Z,47.96
2022-12-03T02:05:21.674Z,47.75
2022-12-03T02:07:52.655Z,47.88
2022-12-03T02:10:27.639Z,47.84
2022-12-03T02:13:02.367Z,47.88
2022-12-03T02:15:33.579Z,47.95
2022-12-03T02:18:05.046Z,48.00
2022-12-03T02:20:43.794Z,47.98
2022-12-03T02:23:22.656Z,47.95
2022-12-03T02:25:53.570Z,47.99
2022-12-03T02:28:24.538Z,48.09
2022-12-03T02:30:55.281Z,48.10
2022-12-03T02:33:26.042Z,48.05
2022-12-03T02:36:01.918Z,48.09
2022-12-03T02:38:35.705Z,48.22
2022-12-03T02:41:09.760Z,48.13
2022-12-03T02:43:40.863Z,48.23
2022-12-03T02:46:11.591Z,48.35
2022-12-03T02:48:43.214Z,48.21
2022-12-03T02:51:14.405Z,48.25
2022-12-03T02:53:47.500Z,48.34
2022-12-03T02:56:22.270Z,48.34
2022-12-03T02:58:57.876Z,48.41
2022-12-03T03:01:29.309Z,48.33
2022-12-03T03:04:00.744Z,48.39
2022-12-03T03:06:32.138Z,48.43
2022-12-03T03:09:03.590Z,48.40
2022-12-03T03:11:34.522Z,48.50
2022-12-03T03:14:05.647Z,48.56
2022-12-03T03:16:38.001Z,48.60
2022-12-03T03:19:09.465Z,48.70
2022-12-03T03:21:40.291Z,48.72
2022-12-03T03:24:11.705Z,48.61
2022-12-03T03:26:42.459Z,48.78
2022-12-03T03:29:13.485Z,48.82
2022-12-03T03:31:45.930Z,48.70
2022-12-03T03:34:17.531Z,48.79
2022-12-03T03:36:48.834Z,48.80
2022-12-03T03:39:19.596Z,48.83
2022-12-03T03:41:51.024Z,48.91
2022-12-03T03:44:21.864Z,48.86
2022-12-03T03:46:53.101Z,48.86
2022-12-03T03:49:24.538Z,48.86
2022-12-03T03:51:55.745Z,48.75
2022-12-03T03:54:26.669Z,48.79
2022-12-03T03:56:57.502Z,48.80
2022-12-03T03:59:28.181Z,48.83
2022-12-03T04:01:58.913Z,48.79
2022-12-03T04:04:37.957Z,48.77
2022-12-03T04:07:08.762Z,48.72
2022-12-03T04:09:39.396Z,48.85
2022-12-03T04:12:28.350Z,48.81
2022-12-03T04:14:59.389Z,48.70
2022-12-03T04:17:30.646Z,48.69
2022-12-03T04:20:01.297Z,48.68
2022-12-03T04:22:40.999Z,48.71
2022-12-03T04:25:30.742Z,48.64
2022-12-03T04:28:19.081Z,48.65
2022-12-03T04:30:49.733Z,48.73
2022-12-03T04:33:38.229Z,48.86
2022-12-03T04:36:09.643Z,48.74
2022-12-03T04:38:40.275Z,48.78
2022-12-03T04:41:11.071Z,48.95
2022-12-03T04:43:55.704Z,48.87
2022-12-03T04:46:26.414Z,49.15
2022-12-03T04:48:57.116Z,48.97
2022-12-03T04:51:27.993Z,48.91
2022-12-03T04:53:58.635Z,48.83
2022-12-03T04:56:29.291Z,48.78
2022-12-03T04:58:59.925Z,48.89
2022-12-03T05:01:30.933Z,48.79
2022-12-03T05:04:01.788Z,49.02
2022-12-03T05:06:33.589Z,48.94
2022-12-03T05:09:04.515Z,48.93
2022-12-03T05:11:35.332Z,49.03
2022-12-03T05:14:06.215Z,49.02
2022-12-03T05:16:37.171Z,48.95
2022-12-03T05:19:10.007Z,48.78
2022-12-03T05:21:40.721Z,48.67
2022-12-03T05:24:11.591Z,48.62
2022-12-03T05:26:42.645Z,48.47
2022-12-03T05:29:13.381Z,48.33
2022-12-03T05:31:44.018Z,48.26
2022-12-03T05:34:14.700Z,48.26
2022-12-03T05:36:45.494Z,48.10
2022-12-03T05:39:16.337Z,48.01
2022-12-03T05:42:04.982Z,47.87
2022-12-03T05:44:35.615Z,47.97
2022-12-03T05:47:06.350Z,47.84
2022-12-03T05:49:37.016Z,47.82
2022-12-03T05:52:07.886Z,47.86
2022-12-03T05:54:38.529Z,47.84
2022-12-03T05:57:09.405Z,47.78
2022-12-03T05:59:40.181Z,47.75
2022-12-03T06:02:10.831Z,47.86
2022-12-03T06:04:41.635Z,47.73
2022-12-03T06:07:14.093Z,47.63
2022-12-03T06:09:45.142Z,47.51
2022-12-03T06:12:15.799Z,47.48
2022-12-03T06:14:46.726Z,47.63
2022-12-03T06:17:17.562Z,47.57
2022-12-03T06:19:48.521Z,47.48
2022-12-03T06:22:19.478Z,47.57
2022-12-03T06:24:50.733Z,47.74
2022-12-03T06:27:21.844Z,47.67
2022-12-03T06:29:52.580Z,47.76
2022-12-03T06:32:23.417Z,47.49
2022-12-03T06:34:54.535Z,47.60
2022-12-03T06:37:25.767Z,47.62
2022-12-03T06:39:56.656Z,47.59
2022-12-03T06:42:27.460Z,47.63
2022-12-03T06:44:58.134Z,47.65
2022-12-03T06:47:28.815Z,47.57
2022-12-03T06:49:59.713Z,47.51
2022-12-03T06:52:30.449Z,47.70
2022-12-03T06:55:01.390Z,47.49
2022-12-03T06:57:32.264Z,47.30
2022-12-03T07:00:03.589Z,47.53
2022-12-03T07:02:34.454Z,47.64
2022-12-03T07:05:05.812Z,47.55
2022-12-03T07:07:36.786Z,47.49
2022-12-03T07:10:09.442Z,47.46
2022-12-03T07:12:40.082Z,47.59
2022-12-03T07:15:12.413Z,47.67
2022-12-03T07:17:43.522Z,47.54
2022-12-03T07:20:16.327Z,47.57
2022-12-03T07:22:47.181Z,47.72
2022-12-03T07:25:22.920Z,47.86
2022-12-03T07:27:54.491Z,47.74
2022-12-03T07:30:25.812Z,47.85
2022-12-03T07:32:56.583Z,47.76
2022-12-03T07:35:27.465Z,47.95
2022-12-03T07:37:58.157Z,47.71
2022-12-03T07:40:28.923Z,47.99
2022-12-03T07:42:59.719Z,48.04
2022-12-03T07:45:30.473Z,48.06
2022-12-03T07:48:01.183Z,48.05
2022-12-03T07:50:31.925Z,48.09
2022-12-03T07:53:02.686Z,48.13
2022-12-03T07:55:33.354Z,48.13
2022-12-03T07:58:04.028Z,48.03
2022-12-03T08:00:34.856Z,48.20
2022-12-03T08:03:05.743Z,48.11
2022-12-03T08:05:36.731Z,47.81
2022-12-03T08:08:07.970Z,47.65
2022-12-03T08:10:38.998Z,47.51
2022-12-03T08:13:14.772Z,47.47
2022-12-03T08:15:46.484Z,47.53
2022-12-03T08:18:20.732Z,47.34
2022-12-03T08:20:53.019Z,47.66
2022-12-03T08:23:27.055Z,47.83
2022-12-03T08:26:05.201Z,47.91
2022-12-03T08:28:36.917Z,48.02
2022-12-03T08:31:20.015Z,48.24
2022-12-03T08:33:52.978Z,48.39
2022-12-03T08:36:25.554Z,48.45
2022-12-03T08:39:00.116Z,48.61
2022-12-03T08:41:49.716Z,48.58
2022-12-03T08:44:27.550Z,48.60
2022-12-03T08:47:07.698Z,48.67
2022-12-03T08:49:38.724Z,48.42
2022-12-03T08:52:16.471Z,48.28
2022-12-03T08:54:52.981Z,48.15
2022-12-03T08:57:29.561Z,47.79
2022-12-03T09:00:03.693Z,47.70
2022-12-03T09:02:36.922Z,47.52
2022-12-03T09:05:17.300Z,47.21
2022-12-03T09:07:48.370Z,47.16
2022-12-03T09:10:19.288Z,47.02
2022-12-03T09:12:50.167Z,47.02
2022-12-03T09:15:20.969Z,46.85
2022-12-03T09:17:51.932Z,46.73
2022-12-03T09:20:23.132Z,46.68
2022-12-03T09:22:53.949Z,46.56
2022-12-03T09:25:24.592Z,46.55
2022-12-03T09:27:55.509Z,46.50
2022-12-03T09:30:26.363Z,46.52
2022-12-03T09:32:57.176Z,46.36
2022-12-03T09:35:27.892Z,46.47
2022-12-03T09:37:58.781Z,46.34
2022-12-03T09:40:29.977Z,46.54
2022-12-03T09:43:01.061Z,46.51
2022-12-03T09:45:31.893Z,46.75
2022-12-03T09:48:04.895Z,46.87
2022-12-03T09:50:39.739Z,46.93
2022-12-03T09:53:15.654Z,47.06
2022-12-03T09:55:49.871Z,46.98
2022-12-03T09:58:23.206Z,46.93
2022-12-03T10:00:54.506Z,47.06
2022-12-03T10:03:31.383Z,47.13
2022-12-03T10:06:02.281Z,47.25
2022-12-03T10:08:33.937Z,47.28
2022-12-03T10:11:04.712Z,47.37
2022-12-03T10:13:37.403Z,47.41
2022-12-03T10:16:13.353Z,47.42
2022-12-03T10:18:47.325Z,47.51
2022-12-03T10:21:24.345Z,47.46
2022-12-03T10:24:20.530Z,47.37
2022-12-03T10:26:52.718Z,47.40
2022-12-03T10:29:31.575Z,47.44
2022-12-03T10:32:06.562Z,47.38
2022-12-03T10:34:39.368Z,47.31
2022-12-03T10:37:16.055Z,47.20
2022-12-03T10:39:59.473Z,47.42
2022-12-03T10:42:32.638Z,47.14
2022-12-03T10:45:18.038Z,47.28
2022-12-03T10:48:05.180Z,47.33
2022-12-03T10:50:36.928Z,47.27
2022-12-03T10:53:09.983Z,47.07
2022-12-03T10:55:45.697Z,47.05
2022-12-03T10:58:22.879Z,46.79
2022-12-03T11:00:56.159Z,46.67
2022-12-03T11:03:28.988Z,46.62
2022-12-03T11:06:01.518Z,46.72
2022-12-03T11:08:35.448Z,46.59
2022-12-03T11:11:08.255Z,46.30
2022-12-03T11:13:51.740Z,46.37
2022-12-03T11:17:02.646Z,46.31
2022-12-03T11:19:52.031Z,46.41
2022-12-03T11:22:43.571Z,46.36
2022-12-03T11:25:50.576Z,46.51
2022-12-03T11:28:49.055Z,46.33
2022-12-03T11:31:37.798Z,46.29
2022-12-03T11:34:51.115Z,46.44
2022-12-03T11:37:31.581Z,46.44
2022-12-03T11:40:30.048Z,46.32
2022-12-03T11:43:05.819Z,46.29
2022-12-03T11:45:39.459Z,46.49
2022-12-03T11:48:18.889Z,46.58
2022-12-03T11:50:54.408Z,46.43
2022-12-03T11:53:27.525Z,46.53
2022-12-03T11:56:09.198Z,46.64
2022-12-03T11:58:43.569Z,46.55
2022-12-03T12:01:15.403Z,46.53
2022-12-03T12:03:48.354Z,46.69
2022-12-03T12:06:21.197Z,46.54
2022-12-03T12:09:00.439Z,46.68
2022-12-03T12:11:33.242Z,46.39
2022-12-03T12:14:05.410Z,46.36
2022-12-03T12:16:58.493Z,46.36
2022-12-03T12:19:37.798Z,46.23
2022-12-03T12:22:21.067Z,46.14
2022-12-03T12:24:54.334Z,46.54
2022-12-03T12:27:32.119Z,46.46
2022-12-03T12:30:06.073Z,46.45
2022-12-03T12:32:43.306Z,46.56
2022-12-03T12:35:19.991Z,46.39
2022-12-03T12:37:58.957Z,46.35
2022-12-03T12:40:34.102Z,46.36
2022-12-03T12:43:13.528Z,46.43
2022-12-03T12:45:47.491Z,46.42
2022-12-03T12:48:25.029Z,46.41
2022-12-03T12:51:01.640Z,46.29
2022-12-03T12:53:34.712Z,46.26
2022-12-03T12:56:14.583Z,46.33
2022-12-03T12:58:45.661Z,46.49
2022-12-03T13:01:22.323Z,46.61
2022-12-03T13:03:55.256Z,46.41
2022-12-03T13:06:29.491Z,46.37
2022-12-03T13:09:01.364Z,46.53
2022-12-03T13:11:41.465Z,46.35
2022-12-03T13:14:19.343Z,46.43
2022-12-03T13:16:52.103Z,46.49
2022-12-03T13:19:27.836Z,46.15
2022-12-03T13:22:01.447Z,46.19
2022-12-03T13:24:38.172Z,46.35
2022-12-03T13:27:29.594Z,46.34
2022-12-03T13:30:04.481Z,46.44
2022-12-03T13:32:37.869Z,46.52
2022-12-03T13:35:17.695Z,46.82
2022-12-03T13:37:46.825Z,46.50
2022-12-03T13:40:27.374Z,46.47
2022-12-03T13:42:58.507Z,46.45
2022-12-03T13:45:36.803Z,46.54
2022-12-03T13:48:24.992Z,46.73
2022-12-03T13:50:56.450Z,46.49
2022-12-03T13:53:29.407Z,46.44
2022-12-03T13:56:23.403Z,46.21
2022-12-03T13:58:54.377Z,46.43
2022-12-03T14:01:25.424Z,46.23
2022-12-03T14:03:56.439Z,46.35
2022-12-03T14:06:27.486Z,46.23
2022-12-03T14:08:58.524Z,46.35
2022-12-03T14:11:47.077Z,46.51
2022-12-03T14:14:18.063Z,46.52
2022-12-03T14:16:49.399Z,46.62
2022-12-03T14:19:20.338Z,46.45
2022-12-03T14:21:51.246Z,46.39
2022-12-03T14:24:22.029Z,46.25
2022-12-03T14:26:52.833Z,46.39
2022-12-03T14:29:23.973Z,46.09
2022-12-03T14:31:55.049Z,46.29
2022-12-03T14:34:26.056Z,46.04
2022-12-03T14:36:57.009Z,46.05
2022-12-03T14:39:28.882Z,45.96
2022-12-03T14:42:15.581Z,46.04
2022-12-03T14:44:48.683Z,46.16
2022-12-03T14:47:22.939Z,45.98
2022-12-03T14:49:54.588Z,46.02
2022-12-03T14:52:25.583Z,46.06
2022-12-03T14:54:56.444Z,45.98
2022-12-03T14:57:27.787Z,45.97
2022-12-03T14:59:58.939Z,46.06
2022-12-03T15:02:32.884Z,45.58
2022-12-03T15:05:03.988Z,45.42
2022-12-03T15:07:35.177Z,45.29
2022-12-03T15:10:07.601Z,45.19
2022-12-03T15:12:38.356Z,45.20
2022-12-03T15:15:12.521Z,45.01
2022-12-03T15:17:47.439Z,44.93
2022-12-03T15:20:18.655Z,44.95
2022-12-03T15:22:49.793Z,45.05
2022-12-03T15:25:24.563Z,45.01
2022-12-03T15:27:55.356Z,45.18
2022-12-03T15:30:26.433Z,45.33
2022-12-03T15:32:57.448Z,45.17
2022-12-03T15:35:30.788Z,45.18
2022-12-03T15:38:01.791Z,45.20
2022-12-03T15:40:33.111Z,45.36
2022-12-03T15:43:04.083Z,45.22
2022-12-03T15:45:35.041Z,45.17
2022-12-03T15:48:06.969Z,45.40
2022-12-03T15:50:40.319Z,45.30
2022-12-03T15:53:09.748Z,45.34
2022-12-03T15:55:41.052Z,45.36
2022-12-03T15:58:12.075Z,45.31
2022-12-03T16:00:45.191Z,45.39
2022-12-03T16:03:16.208Z,45.33
2022-12-03T16:05:48.610Z,45.44
2022-12-03T16:08:19.512Z,45.43
2022-12-03T16:10:50.492Z,45.37
2022-12-03T16:13:21.337Z,45.43
2022-12-03T16:15:52.536Z,45.53
2022-12-03T16:18:23.637Z,45.56
2022-12-03T16:20:54.322Z,45.47
2022-12-03T16:23:25.225Z,45.38
2022-12-03T16:25:58.427Z,45.43
2022-12-03T16:28:29.351Z,45.32
2022-12-03T16:31:00.230Z,45.09
2022-12-03T16:33:31.235Z,45.30
2022-12-03T16:36:02.096Z,45.22
2022-12-03T16:38:33.763Z,45.03
2022-12-03T16:41:05.100Z,44.90
2022-12-03T16:43:38.733Z,44.83
2022-12-03T16:46:26.846Z,44.84
2022-12-03T16:48:59.062Z,44.89
2022-12-03T16:51:31.408Z,44.91
2022-12-03T16:54:02.143Z,44.73
2022-12-03T16:56:33.049Z,44.55
2022-12-03T16:59:03.983Z,44.44
2022-12-03T17:01:35.121Z,44.43
2022-12-03T17:04:06.179Z,44.39
2022-12-03T17:06:37.139Z,44.30
2022-12-03T17:09:07.928Z,44.23
2022-12-03T17:11:38.902Z,44.48
2022-12-03T17:14:09.741Z,44.21
2022-12-03T17:16:40.581Z,44.25
2022-12-03T17:19:11.509Z,44.29
2022-12-03T17:21:42.281Z,44.21
2022-12-03T17:24:13.203Z,44.16
2022-12-03T17:26:44.810Z,44.06
2022-12-03T17:29:15.601Z,43.96
2022-12-03T17:31:46.665Z,44.07
2022-12-03T17:34:17.473Z,44.10
2022-12-03T17:36:48.536Z,44.08
2022-12-03T17:39:19.451Z,44.21
2022-12-03T17:41:50.456Z,44.25
2022-12-03T17:44:21.588Z,44.27
2022-12-03T17:46:52.493Z,44.40
2022-12-03T17:49:26.970Z,44.44
2022-12-03T17:52:02.202Z,44.33
2022-12-03T17:54:55.276Z,44.39
2022-12-03T17:57:24.852Z,44.31
2022-12-03T17:59:56.108Z,44.47
2022-12-03T18:02:27.454Z,44.43
2022-12-03T18:04:58.380Z,44.41
2022-12-03T18:07:29.405Z,44.41
2022-12-03T18:10:00.360Z,44.44
2022-12-03T18:12:31.417Z,44.55
2022-12-03T18:15:02.347Z,44.46
2022-12-03T18:17:33.397Z,44.51
2022-12-03T18:20:04.881Z,44.55
2022-12-03T18:22:35.928Z,44.53
2022-12-03T18:25:08.200Z,44.61
2022-12-03T18:27:39.592Z,44.59
2022-12-03T18:30:12.259Z,44.60
2022-12-03T18:32:43.144Z,44.64
2022-12-03T18:35:14.015Z,44.48
2022-12-03T18:37:44.929Z,44.53
2022-12-03T18:40:22.937Z,44.50
2022-12-03T18:42:54.054Z,44.58
2022-12-03T18:45:24.983Z,44.54
2022-12-03T18:47:56.126Z,44.54
2022-12-03T18:50:29.057Z,44.54
2022-12-03T18:52:59.896Z,44.42
2022-12-03T18:55:34.538Z,44.60
2022-12-03T18:58:05.472Z,44.53
2022-12-03T19:00:36.505Z,44.48
2022-12-03T19:03:08.324Z,44.40
2022-12-03T19:05:39.520Z,44.50
2022-12-03T19:08:17.070Z,44.48
2022-12-03T19:10:55.945Z,44.53
2022-12-03T19:13:28.727Z,44.47
2022-12-03T19:16:02.541Z,44.57
2022-12-03T19:18:34.397Z,44.55
2022-12-03T19:21:13.438Z,44.50
2022-12-03T19:24:15.972Z,44.51
2022-12-03T19:26:36.901Z,44.54
2022-12-03T19:29:09.630Z,44.55
2022-12-03T19:31:40.929Z,44.51
2022-12-03T19:34:12.011Z,44.52
2022-12-03T19:36:43.125Z,44.48
2022-12-03T19:39:15.571Z,44.44
2022-12-03T19:41:46.650Z,44.41
2022-12-03T19:44:19.036Z,44.41
2022-12-03T19:46:53.744Z,44.26
2022-12-03T19:49:24.755Z,44.23
2022-12-03T19:51:57.397Z,44.27
2022-12-03T19:54:29.451Z,44.32
2022-12-03T19:57:00.839Z,44.37
2022-12-03T19:59:32.879Z,44.36
2022-12-03T20:02:06.137Z,44.46
2022-12-03T20:04:38.468Z,44.32
2022-12-03T20:07:10.984Z,44.33
2022-12-03T20:09:43.141Z,44.33
2022-12-03T20:12:14.229Z,44.25
2022-12-03T20:14:46.656Z,44.20
2022-12-03T20:17:17.651Z,44.07
2022-12-03T20:19:49.361Z,43.52
2022-12-03T20:22:21.589Z,43.69
2022-12-03T20:24:52.643Z,43.71
2022-12-03T20:27:23.600Z,43.73
2022-12-03T20:29:55.683Z,43.67
2022-12-03T20:32:28.551Z,43.61
2022-12-03T20:34:59.780Z,43.72
2022-12-03T20:37:31.901Z,43.71
2022-12-03T20:40:02.822Z,43.74
2022-12-03T20:42:34.785Z,43.67
2022-12-03T20:45:07.252Z,43.84
2022-12-03T20:47:39.235Z,43.82
2022-12-03T20:50:13.395Z,43.88
2022-12-03T20:53:03.360Z,43.89
2022-12-03T20:55:37.591Z,43.97
2022-12-03T20:58:09.237Z,43.94
2022-12-03T21:00:41.310Z,44.07
2022-12-03T21:03:13.074Z,43.94
2022-12-03T21:05:45.181Z,44.00
2022-12-03T21:08:24.505Z,44.03
2022-12-03T21:11:10.574Z,44.13
2022-12-03T21:13:44.395Z,44.25
2022-12-03T21:16:17.145Z,44.19
2022-12-03T21:18:49.350Z,44.19
2022-12-03T21:21:21.569Z,44.22
2022-12-03T21:23:53.610Z,44.26
2022-12-03T21:26:25.511Z,44.30
2022-12-03T21:28:56.810Z,44.27
2022-12-03T21:31:30.423Z,44.23
2022-12-03T21:34:00.634Z,44.19
2022-12-03T21:36:32.110Z,44.31
2022-12-03T21:39:03.395Z,44.29
2022-12-03T21:41:35.257Z,44.33
2022-12-03T21:44:06.264Z,44.38
2022-12-03T21:47:09.832Z,44.48
2022-12-03T21:49:28.241Z,44.51
2022-12-03T21:51:59.337Z,44.66
2022-12-03T21:54:30.398Z,44.79
2022-12-03T21:57:01.220Z,44.77
2022-12-03T21:59:32.249Z,44.74
2022-12-03T22:02:03.434Z,44.99
2022-12-03T22:04:34.587Z,45.08
2022-12-03T22:07:06.210Z,45.07
2022-12-03T22:09:37.264Z,45.01
2022-12-03T22:12:09.010Z,45.08
2022-12-03T22:14:40.000Z,45.11
2022-12-03T22:17:10.809Z,45.19
2022-12-03T22:19:42.219Z,45.24
2022-12-03T22:22:13.057Z,45.23
2022-12-03T22:24:45.777Z,45.19
2022-12-03T22:27:16.897Z,45.24
2022-12-03T22:29:47.693Z,45.20
2022-12-03T22:32:18.764Z,45.23
2022-12-03T22:34:50.077Z,45.28
2022-12-03T22:37:21.370Z,45.20
2022-12-03T22:39:52.495Z,45.43
2022-12-03T22:42:23.612Z,45.40
2022-12-03T22:44:54.438Z,45.44
2022-12-03T22:47:25.200Z,45.29
2022-12-03T22:49:56.454Z,45.21
2022-12-03T22:52:27.479Z,45.27
2022-12-03T22:54:58.527Z,45.32
2022-12-03T22:57:29.848Z,45.39
2022-12-03T23:00:02.185Z,45.27
2022-12-03T23:02:33.756Z,45.52
2022-12-03T23:05:04.989Z,45.58
2022-12-03T23:07:35.835Z,45.52
2022-12-03T23:10:08.621Z,45.49
2022-12-03T23:12:39.990Z,45.62
2022-12-03T23:15:12.486Z,45.81
2022-12-03T23:17:43.749Z,45.77
2022-12-03T23:20:16.390Z,45.97
2022-12-03T23:22:48.647Z,46.00
2022-12-03T23:25:20.585Z,46.05
2022-12-03T23:27:51.496Z,45.84
2022-12-03T23:30:22.456Z,46.12
2022-12-03T23:32:57.100Z,46.01
2022-12-03T23:35:28.038Z,45.98
2022-12-03T23:37:58.993Z,45.93
2022-12-03T23:40:29.936Z,45.98
2022-12-03T23:43:00.789Z,45.89
2022-12-03T23:45:32.992Z,45.88
2022-12-03T23:48:04.206Z,46.00
2022-12-03T23:50:34.969Z,46.08
2022-12-03T23:53:05.713Z,46.17
2022-12-03T23:55:39.668Z,46.06
2022-12-03T23:58:10.284Z,46.09
